aviador You're here:

KEEO Decoded Metar

MEEKER in CO, USA
Report Time2018-04-24 13:53:00
UTC Time2018-04-24 14:04:28
Flight Rules vfr VFR
Wind040° at 12 kt
W.Decomp.*RWY 03: 12.0 kt HW 0.8 kt LCW
W.Rank040° ranks 3
Current wind is above 040° avg. (5.1)
Visibility9999 m
Phenomena:N/A
Clouds:Few 021 Hf
Expected CloudBase > 2,000 ft AGL from Temp-Dew spread
CeilingNone
Temp02°C (ISA -0)
Dew Point-3°C (70% RH)
AAT-4.7°C
QNH1027 hPa
Density Alt5,889 ft
Elevation6,332 ft
Report Wrong Elevation
Raw Report
KEEO 241353Z AUTO 04012KT 10SM FEW021 02/M03 A3033 RMK AO2 SLP235
T00221028=

Extra information for KEEO:More info

Metar Taf Metar & Taf Last 4 Metars F.Rules Stats Wind Profile Meteogram Temp Stats Airport Information Weather charts Add Link Nearby VenuesMetar ALERT Operation Metar Decoded Social comments

AIRNAV info for KEEO